sensor_id;sensor_type;location;lat;lon;timestamp;P1;durP1;ratioP1;P2;durP2;ratioP2
46653;SDS011;38960;51.074;17.004;2023-10-19T00:00:14;37.22;;;21.55;;
46653;SDS011;38960;51.074;17.004;2023-10-19T00:02:49;35.47;;;19.35;;
46653;SDS011;38960;51.074;17.004;2023-10-19T00:05:17;35.58;;;20.05;;
46653;SDS011;38960;51.074;17.004;2023-10-19T00:07:43;38.83;;;20.48;;
46653;SDS011;38960;51.074;17.004;2023-10-19T00:10:09;38.20;;;21.35;;
46653;SDS011;38960;51.074;17.004;2023-10-19T00:12:35;35.22;;;20.92;;
46653;SDS011;38960;51.074;17.004;2023-10-19T00:15:02;36.20;;;21.48;;
46653;SDS011;38960;51.074;17.004;2023-10-19T00:17:29;37.15;;;20.40;;
46653;SDS011;38960;51.074;17.004;2023-10-19T00:19:55;36.85;;;20.20;;
46653;SDS011;38960;51.074;17.004;2023-10-19T00:22:43;34.75;;;20.58;;
46653;SDS011;38960;51.074;17.004;2023-10-19T00:25:09;33.85;;;20.10;;
46653;SDS011;38960;51.074;17.004;2023-10-19T00:27:38;39.88;;;22.15;;
46653;SDS011;38960;51.074;17.004;2023-10-19T00:30:05;38.15;;;21.75;;
46653;SDS011;38960;51.074;17.004;2023-10-19T00:32:31;40.58;;;20.17;;
46653;SDS011;38960;51.074;17.004;2023-10-19T00:34:59;39.83;;;21.95;;
46653;SDS011;38960;51.074;17.004;2023-10-19T00:37:33;39.85;;;20.38;;
46653;SDS011;38960;51.074;17.004;2023-10-19T00:40:07;32.03;;;20.10;;
46653;SDS011;38960;51.074;17.004;2023-10-19T00:42:44;32.80;;;19.35;;
46653;SDS011;38960;51.074;17.004;2023-10-19T00:45:12;39.65;;;22.05;;
46653;SDS011;38960;51.074;17.004;2023-10-19T00:47:38;38.15;;;22.27;;
46653;SDS011;38960;51.074;17.004;2023-10-19T00:50:08;39.47;;;20.90;;
46653;SDS011;38960;51.074;17.004;2023-10-19T00:52:40;35.58;;;19.70;;
46653;SDS011;38960;51.074;17.004;2023-10-19T00:55:11;36.97;;;21.65;;
46653;SDS011;38960;51.074;17.004;2023-10-19T00:57:39;33.75;;;20.08;;
46653;SDS011;38960;51.074;17.004;2023-10-19T01:00:08;39.47;;;21.35;;
46653;SDS011;38960;51.074;17.004;2023-10-19T01:02:38;34.88;;;19.40;;
46653;SDS011;38960;51.074;17.004;2023-10-19T01:05:11;35.22;;;20.77;;
46653;SDS011;38960;51.074;17.004;2023-10-19T01:07:38;40.30;;;20.52;;
46653;SDS011;38960;51.074;17.004;2023-10-19T01:10:06;34.05;;;18.95;;
46653;SDS011;38960;51.074;17.004;2023-10-19T01:12:58;32.15;;;18.38;;
46653;SDS011;38960;51.074;17.004;2023-10-19T01:15:24;32.40;;;19.25;;
46653;SDS011;38960;51.074;17.004;2023-10-19T01:17:53;33.65;;;19.50;;
46653;SDS011;38960;51.074;17.004;2023-10-19T01:20:26;35.47;;;18.75;;
46653;SDS011;38960;51.074;17.004;2023-10-19T01:22:56;33.53;;;18.33;;
46653;SDS011;38960;51.074;17.004;2023-10-19T01:25:32;37.50;;;19.38;;
46653;SDS011;38960;51.074;17.004;2023-10-19T01:28:07;37.58;;;19.20;;
46653;SDS011;38960;51.074;17.004;2023-10-19T01:30:35;33.20;;;18.40;;
46653;SDS011;38960;51.074;17.004;2023-10-19T01:33:04;31.63;;;17.80;;
46653;SDS011;38960;51.074;17.004;2023-10-19T01:35:33;32.78;;;18.40;;
46653;SDS011;38960;51.074;17.004;2023-10-19T01:38:17;33.08;;;17.17;;
46653;SDS011;38960;51.074;17.004;2023-10-19T01:40:43;34.55;;;18.70;;
46653;SDS011;38960;51.074;17.004;2023-10-19T01:43:11;33.97;;;18.45;;
46653;SDS011;38960;51.074;17.004;2023-10-19T01:45:49;31.55;;;18.23;;
46653;SDS011;38960;51.074;17.004;2023-10-19T01:48:19;34.72;;;19.08;;
46653;SDS011;38960;51.074;17.004;2023-10-19T01:50:48;32.80;;;17.50;;
46653;SDS011;38960;51.074;17.004;2023-10-19T01:53:16;28.50;;;16.88;;
46653;SDS011;38960;51.074;17.004;2023-10-19T01:55:44;35.35;;;18.92;;
46653;SDS011;38960;51.074;17.004;2023-10-19T01:58:12;32.55;;;18.45;;
46653;SDS011;38960;51.074;17.004;2023-10-19T02:00:39;32.22;;;18.67;;
46653;SDS011;38960;51.074;17.004;2023-10-19T02:03:07;34.08;;;17.50;;
46653;SDS011;38960;51.074;17.004;2023-10-19T02:05:34;30.70;;;17.20;;
46653;SDS011;38960;51.074;17.004;2023-10-19T02:08:07;30.63;;;19.17;;
46653;SDS011;38960;51.074;17.004;2023-10-19T02:10:36;34.17;;;18.50;;
46653;SDS011;38960;51.074;17.004;2023-10-19T02:13:07;31.83;;;17.97;;
46653;SDS011;38960;51.074;17.004;2023-10-19T02:15:36;33.05;;;17.98;;
46653;SDS011;38960;51.074;17.004;2023-10-19T02:18:02;35.73;;;19.30;;
46653;SDS011;38960;51.074;17.004;2023-10-19T02:20:29;32.70;;;18.13;;
46653;SDS011;38960;51.074;17.004;2023-10-19T02:22:56;38.33;;;19.45;;
46653;SDS011;38960;51.074;17.004;2023-10-19T02:25:23;35.75;;;20.38;;
46653;SDS011;38960;51.074;17.004;2023-10-19T02:27:56;31.65;;;18.25;;
46653;SDS011;38960;51.074;17.004;2023-10-19T02:30:22;31.55;;;17.30;;
46653;SDS011;38960;51.074;17.004;2023-10-19T02:32:50;27.58;;;17.52;;
46653;SDS011;38960;51.074;17.004;2023-10-19T02:35:16;29.90;;;16.50;;
46653;SDS011;38960;51.074;17.004;2023-10-19T02:37:41;30.50;;;17.45;;
46653;SDS011;38960;51.074;17.004;2023-10-19T02:40:07;30.70;;;17.65;;
46653;SDS011;38960;51.074;17.004;2023-10-19T02:42:40;29.15;;;17.75;;
46653;SDS011;38960;51.074;17.004;2023-10-19T02:45:07;33.78;;;18.17;;
46653;SDS011;38960;51.074;17.004;2023-10-19T02:47:33;33.03;;;18.17;;
46653;SDS011;38960;51.074;17.004;2023-10-19T02:49:58;31.08;;;18.30;;
46653;SDS011;38960;51.074;17.004;2023-10-19T02:52:24;33.70;;;18.17;;
46653;SDS011;38960;51.074;17.004;2023-10-19T02:54:49;31.57;;;18.40;;
46653;SDS011;38960;51.074;17.004;2023-10-19T02:57:15;32.00;;;17.90;;
46653;SDS011;38960;51.074;17.004;2023-10-19T02:59:40;33.20;;;18.17;;
46653;SDS011;38960;51.074;17.004;2023-10-19T03:02:06;32.63;;;17.75;;
46653;SDS011;38960;51.074;17.004;2023-10-19T03:04:37;32.45;;;18.65;;
46653;SDS011;38960;51.074;17.004;2023-10-19T03:07:05;37.13;;;19.85;;
46653;SDS011;38960;51.074;17.004;2023-10-19T03:09:30;30.92;;;18.98;;
46653;SDS011;38960;51.074;17.004;2023-10-19T03:12:01;29.77;;;19.30;;
46653;SDS011;38960;51.074;17.004;2023-10-19T03:14:35;34.42;;;18.25;;
46653;SDS011;38960;51.074;17.004;2023-10-19T03:17:00;38.72;;;19.48;;
46653;SDS011;38960;51.074;17.004;2023-10-19T03:19:26;33.57;;;19.83;;
46653;SDS011;38960;51.074;17.004;2023-10-19T03:21:52;36.30;;;20.27;;
46653;SDS011;38960;51.074;17.004;2023-10-19T03:24:20;38.60;;;21.00;;
46653;SDS011;38960;51.074;17.004;2023-10-19T03:26:51;38.33;;;19.75;;
46653;SDS011;38960;51.074;17.004;2023-10-19T03:29:19;33.27;;;20.77;;
46653;SDS011;38960;51.074;17.004;2023-10-19T03:31:53;42.20;;;22.23;;
46653;SDS011;38960;51.074;17.004;2023-10-19T03:34:18;36.95;;;21.63;;
46653;SDS011;38960;51.074;17.004;2023-10-19T03:36:44;37.38;;;21.55;;
46653;SDS011;38960;51.074;17.004;2023-10-19T03:39:10;38.03;;;20.83;;
46653;SDS011;38960;51.074;17.004;2023-10-19T03:41:42;36.17;;;22.33;;
46653;SDS011;38960;51.074;17.004;2023-10-19T03:44:09;37.97;;;21.47;;
46653;SDS011;38960;51.074;17.004;2023-10-19T03:46:49;35.78;;;21.80;;
46653;SDS011;38960;51.074;17.004;2023-10-19T03:49:29;37.40;;;21.43;;
46653;SDS011;38960;51.074;17.004;2023-10-19T03:52:01;44.10;;;22.57;;
46653;SDS011;38960;51.074;17.004;2023-10-19T03:54:36;36.97;;;22.60;;
46653;SDS011;38960;51.074;17.004;2023-10-19T03:57:12;38.70;;;22.30;;
46653;SDS011;38960;51.074;17.004;2023-10-19T03:59:45;42.38;;;23.15;;
46653;SDS011;38960;51.074;17.004;2023-10-19T04:02:12;36.78;;;23.13;;
46653;SDS011;38960;51.074;17.004;2023-10-19T04:04:39;40.65;;;22.30;;
46653;SDS011;38960;51.074;17.004;2023-10-19T04:07:09;44.72;;;23.70;;
46653;SDS011;38960;51.074;17.004;2023-10-19T04:09:51;35.42;;;22.15;;
46653;SDS011;38960;51.074;17.004;2023-10-19T04:12:23;37.88;;;21.88;;
46653;SDS011;38960;51.074;17.004;2023-10-19T04:14:49;41.40;;;22.92;;
46653;SDS011;38960;51.074;17.004;2023-10-19T04:17:15;37.03;;;21.77;;
46653;SDS011;38960;51.074;17.004;2023-10-19T04:19:41;37.42;;;22.70;;
46653;SDS011;38960;51.074;17.004;2023-10-19T04:22:07;46.78;;;23.08;;
46653;SDS011;38960;51.074;17.004;2023-10-19T04:24:36;39.88;;;21.98;;
46653;SDS011;38960;51.074;17.004;2023-10-19T04:27:01;40.83;;;23.00;;
46653;SDS011;38960;51.074;17.004;2023-10-19T04:29:27;41.47;;;21.90;;
46653;SDS011;38960;51.074;17.004;2023-10-19T04:31:53;43.17;;;22.73;;
46653;SDS011;38960;51.074;17.004;2023-10-19T04:34:22;41.40;;;23.65;;
46653;SDS011;38960;51.074;17.004;2023-10-19T04:36:48;41.73;;;22.93;;
46653;SDS011;38960;51.074;17.004;2023-10-19T04:39:13;39.78;;;22.90;;
46653;SDS011;38960;51.074;17.004;2023-10-19T04:41:39;46.05;;;24.42;;
46653;SDS011;38960;51.074;17.004;2023-10-19T04:44:06;45.45;;;22.88;;
46653;SDS011;38960;51.074;17.004;2023-10-19T04:46:33;40.45;;;23.27;;
46653;SDS011;38960;51.074;17.004;2023-10-19T04:48:59;43.60;;;23.83;;
46653;SDS011;38960;51.074;17.004;2023-10-19T04:51:25;43.67;;;23.80;;
46653;SDS011;38960;51.074;17.004;2023-10-19T04:53:51;38.75;;;21.40;;
46653;SDS011;38960;51.074;17.004;2023-10-19T04:56:16;38.10;;;22.58;;
46653;SDS011;38960;51.074;17.004;2023-10-19T04:58:42;45.42;;;22.50;;
46653;SDS011;38960;51.074;17.004;2023-10-19T05:01:07;39.13;;;22.88;;
46653;SDS011;38960;51.074;17.004;2023-10-19T05:03:33;38.15;;;23.23;;
46653;SDS011;38960;51.074;17.004;2023-10-19T05:05:59;39.50;;;22.65;;
46653;SDS011;38960;51.074;17.004;2023-10-19T05:08:26;39.30;;;23.50;;
46653;SDS011;38960;51.074;17.004;2023-10-19T05:10:53;41.45;;;23.35;;
46653;SDS011;38960;51.074;17.004;2023-10-19T05:13:20;42.22;;;24.23;;
46653;SDS011;38960;51.074;17.004;2023-10-19T05:15:48;44.13;;;24.80;;
46653;SDS011;38960;51.074;17.004;2023-10-19T05:18:14;39.22;;;24.35;;
46653;SDS011;38960;51.074;17.004;2023-10-19T05:20:39;49.42;;;25.92;;
46653;SDS011;38960;51.074;17.004;2023-10-19T05:23:08;44.17;;;23.23;;
46653;SDS011;38960;51.074;17.004;2023-10-19T05:25:35;48.40;;;23.65;;
46653;SDS011;38960;51.074;17.004;2023-10-19T05:28:07;43.85;;;24.42;;
46653;SDS011;38960;51.074;17.004;2023-10-19T05:30:33;43.38;;;23.73;;
46653;SDS011;38960;51.074;17.004;2023-10-19T05:33:01;43.72;;;24.83;;
46653;SDS011;38960;51.074;17.004;2023-10-19T05:35:28;49.72;;;26.60;;
46653;SDS011;38960;51.074;17.004;2023-10-19T05:37:55;47.13;;;25.92;;
46653;SDS011;38960;51.074;17.004;2023-10-19T05:40:24;45.90;;;24.00;;
46653;SDS011;38960;51.074;17.004;2023-10-19T05:42:56;45.40;;;24.63;;
46653;SDS011;38960;51.074;17.004;2023-10-19T05:45:23;46.08;;;25.75;;
46653;SDS011;38960;51.074;17.004;2023-10-19T05:47:49;46.05;;;25.25;;
46653;SDS011;38960;51.074;17.004;2023-10-19T05:50:15;44.75;;;24.77;;
46653;SDS011;38960;51.074;17.004;2023-10-19T05:52:41;44.22;;;25.15;;
46653;SDS011;38960;51.074;17.004;2023-10-19T05:55:08;46.97;;;26.20;;
46653;SDS011;38960;51.074;17.004;2023-10-19T05:57:37;43.30;;;23.77;;
46653;SDS011;38960;51.074;17.004;2023-10-19T06:00:06;41.78;;;23.95;;
46653;SDS011;38960;51.074;17.004;2023-10-19T06:02:58;43.25;;;24.73;;
46653;SDS011;38960;51.074;17.004;2023-10-19T06:05:24;38.47;;;23.65;;
46653;SDS011;38960;51.074;17.004;2023-10-19T06:07:50;44.72;;;23.48;;
46653;SDS011;38960;51.074;17.004;2023-10-19T06:10:17;45.85;;;24.23;;
46653;SDS011;38960;51.074;17.004;2023-10-19T06:12:49;41.00;;;23.52;;
46653;SDS011;38960;51.074;17.004;2023-10-19T06:15:16;45.10;;;24.63;;
46653;SDS011;38960;51.074;17.004;2023-10-19T06:17:43;43.03;;;24.15;;
46653;SDS011;38960;51.074;17.004;2023-10-19T06:20:11;43.55;;;25.13;;
46653;SDS011;38960;51.074;17.004;2023-10-19T06:22:52;38.30;;;23.40;;
46653;SDS011;38960;51.074;17.004;2023-10-19T06:25:21;48.03;;;24.40;;
46653;SDS011;38960;51.074;17.004;2023-10-19T06:27:48;52.55;;;24.77;;
46653;SDS011;38960;51.074;17.004;2023-10-19T06:30:15;40.13;;;23.20;;
46653;SDS011;38960;51.074;17.004;2023-10-19T06:32:45;51.75;;;24.00;;
46653;SDS011;38960;51.074;17.004;2023-10-19T06:35:12;43.33;;;24.13;;
46653;SDS011;38960;51.074;17.004;2023-10-19T06:37:37;48.90;;;24.88;;
46653;SDS011;38960;51.074;17.004;2023-10-19T06:40:03;44.45;;;24.52;;
46653;SDS011;38960;51.074;17.004;2023-10-19T06:42:31;40.20;;;24.60;;
46653;SDS011;38960;51.074;17.004;2023-10-19T06:44:57;42.22;;;23.00;;
46653;SDS011;38960;51.074;17.004;2023-10-19T06:47:22;43.15;;;24.73;;
46653;SDS011;38960;51.074;17.004;2023-10-19T06:49:49;41.20;;;23.30;;
46653;SDS011;38960;51.074;17.004;2023-10-19T06:52:15;44.95;;;23.77;;
46653;SDS011;38960;51.074;17.004;2023-10-19T06:54:41;45.55;;;23.60;;
46653;SDS011;38960;51.074;17.004;2023-10-19T06:57:07;49.90;;;25.65;;
46653;SDS011;38960;51.074;17.004;2023-10-19T06:59:34;50.92;;;23.88;;
46653;SDS011;38960;51.074;17.004;2023-10-19T07:02:01;41.97;;;23.83;;
46653;SDS011;38960;51.074;17.004;2023-10-19T07:04:27;46.03;;;25.50;;
46653;SDS011;38960;51.074;17.004;2023-10-19T07:06:53;37.13;;;22.73;;
46653;SDS011;38960;51.074;17.004;2023-10-19T07:09:19;38.95;;;23.50;;
46653;SDS011;38960;51.074;17.004;2023-10-19T07:11:44;52.28;;;25.17;;
46653;SDS011;38960;51.074;17.004;2023-10-19T07:14:11;36.67;;;22.98;;
46653;SDS011;38960;51.074;17.004;2023-10-19T07:16:39;37.70;;;22.35;;
46653;SDS011;38960;51.074;17.004;2023-10-19T07:19:07;40.80;;;24.35;;
46653;SDS011;38960;51.074;17.004;2023-10-19T07:21:34;51.80;;;23.60;;
46653;SDS011;38960;51.074;17.004;2023-10-19T07:24:02;44.38;;;23.98;;
46653;SDS011;38960;51.074;17.004;2023-10-19T07:26:33;42.63;;;24.13;;
46653;SDS011;38960;51.074;17.004;2023-10-19T07:29:06;40.70;;;24.67;;
46653;SDS011;38960;51.074;17.004;2023-10-19T07:31:35;36.67;;;23.98;;
46653;SDS011;38960;51.074;17.004;2023-10-19T07:34:01;43.80;;;23.25;;
46653;SDS011;38960;51.074;17.004;2023-10-19T07:36:26;44.55;;;24.05;;
46653;SDS011;38960;51.074;17.004;2023-10-19T07:38:53;46.83;;;25.80;;
46653;SDS011;38960;51.074;17.004;2023-10-19T07:41:20;42.38;;;24.60;;
46653;SDS011;38960;51.074;17.004;2023-10-19T07:43:47;42.85;;;24.50;;
46653;SDS011;38960;51.074;17.004;2023-10-19T07:46:12;44.42;;;22.13;;
46653;SDS011;38960;51.074;17.004;2023-10-19T07:48:38;39.92;;;25.00;;
46653;SDS011;38960;51.074;17.004;2023-10-19T07:51:04;46.25;;;25.60;;
46653;SDS011;38960;51.074;17.004;2023-10-19T07:53:29;41.85;;;26.15;;
46653;SDS011;38960;51.074;17.004;2023-10-19T07:55:55;50.88;;;25.77;;
46653;SDS011;38960;51.074;17.004;2023-10-19T07:58:22;39.72;;;23.88;;
46653;SDS011;38960;51.074;17.004;2023-10-19T08:00:48;37.53;;;23.17;;
46653;SDS011;38960;51.074;17.004;2023-10-19T08:03:14;42.78;;;25.98;;
46653;SDS011;38960;51.074;17.004;2023-10-19T08:05:41;37.63;;;24.27;;
46653;SDS011;38960;51.074;17.004;2023-10-19T08:08:07;45.10;;;24.50;;
46653;SDS011;38960;51.074;17.004;2023-10-19T08:10:34;36.80;;;23.73;;
46653;SDS011;38960;51.074;17.004;2023-10-19T08:12:59;39.88;;;23.83;;
46653;SDS011;38960;51.074;17.004;2023-10-19T08:15:25;39.58;;;22.80;;
46653;SDS011;38960;51.074;17.004;2023-10-19T08:17:51;35.70;;;23.52;;
46653;SDS011;38960;51.074;17.004;2023-10-19T08:20:18;36.63;;;22.65;;
46653;SDS011;38960;51.074;17.004;2023-10-19T08:22:55;38.13;;;23.10;;
46653;SDS011;38960;51.074;17.004;2023-10-19T08:25:22;42.80;;;24.48;;
46653;SDS011;38960;51.074;17.004;2023-10-19T08:27:48;38.40;;;24.27;;
46653;SDS011;38960;51.074;17.004;2023-10-19T08:30:19;38.20;;;22.35;;
46653;SDS011;38960;51.074;17.004;2023-10-19T08:32:46;38.97;;;24.13;;
46653;SDS011;38960;51.074;17.004;2023-10-19T08:35:15;42.78;;;25.10;;
46653;SDS011;38960;51.074;17.004;2023-10-19T08:37:45;41.67;;;23.88;;
46653;SDS011;38960;51.074;17.004;2023-10-19T08:40:11;45.05;;;24.73;;
46653;SDS011;38960;51.074;17.004;2023-10-19T08:42:40;39.13;;;24.83;;
46653;SDS011;38960;51.074;17.004;2023-10-19T08:45:07;40.95;;;23.83;;
46653;SDS011;38960;51.074;17.004;2023-10-19T08:47:35;45.92;;;27.17;;
46653;SDS011;38960;51.074;17.004;2023-10-19T08:50:02;43.58;;;27.05;;
46653;SDS011;38960;51.074;17.004;2023-10-19T08:52:28;39.45;;;23.95;;
46653;SDS011;38960;51.074;17.004;2023-10-19T08:54:54;51.10;;;29.90;;
46653;SDS011;38960;51.074;17.004;2023-10-19T08:57:20;36.92;;;24.55;;
46653;SDS011;38960;51.074;17.004;2023-10-19T08:59:45;41.45;;;24.10;;
46653;SDS011;38960;51.074;17.004;2023-10-19T09:02:12;39.28;;;23.95;;
46653;SDS011;38960;51.074;17.004;2023-10-19T09:04:41;41.13;;;23.10;;
46653;SDS011;38960;51.074;17.004;2023-10-19T09:07:09;39.03;;;23.70;;
46653;SDS011;38960;51.074;17.004;2023-10-19T09:09:36;39.85;;;23.33;;
46653;SDS011;38960;51.074;17.004;2023-10-19T09:12:06;42.97;;;24.90;;
46653;SDS011;38960;51.074;17.004;2023-10-19T09:14:33;37.90;;;24.13;;
46653;SDS011;38960;51.074;17.004;2023-10-19T09:17:01;45.40;;;24.33;;
46653;SDS011;38960;51.074;17.004;2023-10-19T09:19:45;44.15;;;24.67;;
46653;SDS011;38960;51.074;17.004;2023-10-19T09:22:13;36.25;;;21.98;;
46653;SDS011;38960;51.074;17.004;2023-10-19T09:24:48;34.95;;;23.02;;
46653;SDS011;38960;51.074;17.004;2023-10-19T09:27:18;34.33;;;22.83;;
46653;SDS011;38960;51.074;17.004;2023-10-19T09:29:44;41.92;;;22.58;;
46653;SDS011;38960;51.074;17.004;2023-10-19T09:32:11;41.10;;;23.27;;
46653;SDS011;38960;51.074;17.004;2023-10-19T09:34:39;39.13;;;22.90;;
46653;SDS011;38960;51.074;17.004;2023-10-19T09:37:06;42.22;;;25.00;;
46653;SDS011;38960;51.074;17.004;2023-10-19T09:39:32;39.92;;;23.48;;
46653;SDS011;38960;51.074;17.004;2023-10-19T09:42:10;44.08;;;24.38;;
46653;SDS011;38960;51.074;17.004;2023-10-19T09:44:40;37.65;;;23.30;;
46653;SDS011;38960;51.074;17.004;2023-10-19T09:47:09;39.17;;;25.45;;
46653;SDS011;38960;51.074;17.004;2023-10-19T09:49:41;35.33;;;22.90;;
46653;SDS011;38960;51.074;17.004;2023-10-19T09:52:08;37.78;;;23.88;;
46653;SDS011;38960;51.074;17.004;2023-10-19T09:57:13;42.38;;;24.25;;
46653;SDS011;38960;51.074;17.004;2023-10-19T09:59:44;37.77;;;24.87;;
46653;SDS011;38960;51.074;17.004;2023-10-19T10:02:11;36.13;;;23.08;;
46653;SDS011;38960;51.074;17.004;2023-10-19T10:04:40;42.13;;;24.08;;
46653;SDS011;38960;51.074;17.004;2023-10-19T10:07:08;43.38;;;25.95;;
46653;SDS011;38960;51.074;17.004;2023-10-19T10:09:41;41.78;;;25.70;;
46653;SDS011;38960;51.074;17.004;2023-10-19T10:12:20;38.20;;;24.88;;
46653;SDS011;38960;51.074;17.004;2023-10-19T10:15:22;40.05;;;23.50;;
46653;SDS011;38960;51.074;17.004;2023-10-19T10:17:44;36.22;;;24.08;;
46653;SDS011;38960;51.074;17.004;2023-10-19T10:22:43;38.15;;;24.20;;
46653;SDS011;38960;51.074;17.004;2023-10-19T10:25:27;38.15;;;24.23;;
46653;SDS011;38960;51.074;17.004;2023-10-19T10:27:54;36.47;;;23.98;;
46653;SDS011;38960;51.074;17.004;2023-10-19T10:30:20;43.22;;;25.63;;
46653;SDS011;38960;51.074;17.004;2023-10-19T10:32:46;40.08;;;24.60;;
46653;SDS011;38960;51.074;17.004;2023-10-19T10:38:10;37.42;;;25.15;;
46653;SDS011;38960;51.074;17.004;2023-10-19T10:40:46;37.05;;;24.70;;
46653;SDS011;38960;51.074;17.004;2023-10-19T10:43:15;36.63;;;23.77;;
46653;SDS011;38960;51.074;17.004;2023-10-19T10:45:42;36.00;;;25.02;;
46653;SDS011;38960;51.074;17.004;2023-10-19T10:48:15;37.85;;;24.77;;
46653;SDS011;38960;51.074;17.004;2023-10-19T10:50:42;40.58;;;24.52;;
46653;SDS011;38960;51.074;17.004;2023-10-19T10:53:08;38.92;;;24.38;;
46653;SDS011;38960;51.074;17.004;2023-10-19T10:55:36;35.67;;;24.75;;
46653;SDS011;38960;51.074;17.004;2023-10-19T10:58:02;39.70;;;24.70;;
46653;SDS011;38960;51.074;17.004;2023-10-19T11:00:28;38.33;;;26.63;;
46653;SDS011;38960;51.074;17.004;2023-10-19T11:03:01;37.55;;;26.02;;
46653;SDS011;38960;51.074;17.004;2023-10-19T11:05:29;38.55;;;25.48;;
46653;SDS011;38960;51.074;17.004;2023-10-19T11:10:29;39.47;;;25.73;;
46653;SDS011;38960;51.074;17.004;2023-10-19T11:13:02;38.40;;;26.30;;
46653;SDS011;38960;51.074;17.004;2023-10-19T11:15:28;41.03;;;28.25;;
46653;SDS011;38960;51.074;17.004;2023-10-19T11:17:54;44.28;;;28.15;;
46653;SDS011;38960;51.074;17.004;2023-10-19T11:20:23;38.47;;;27.65;;
46653;SDS011;38960;51.074;17.004;2023-10-19T11:22:51;45.45;;;29.35;;
46653;SDS011;38960;51.074;17.004;2023-10-19T11:25:24;44.63;;;29.92;;
46653;SDS011;38960;51.074;17.004;2023-10-19T11:27:56;38.78;;;26.95;;
46653;SDS011;38960;51.074;17.004;2023-10-19T11:30:30;47.17;;;28.00;;
46653;SDS011;38960;51.074;17.004;2023-10-19T11:33:00;39.15;;;27.88;;
46653;SDS011;38960;51.074;17.004;2023-10-19T11:35:28;38.25;;;27.80;;
46653;SDS011;38960;51.074;17.004;2023-10-19T11:37:56;37.78;;;27.30;;
46653;SDS011;38960;51.074;17.004;2023-10-19T11:40:24;37.65;;;26.75;;
46653;SDS011;38960;51.074;17.004;2023-10-19T11:42:51;35.33;;;24.67;;
46653;SDS011;38960;51.074;17.004;2023-10-19T11:45:18;35.78;;;26.33;;
46653;SDS011;38960;51.074;17.004;2023-10-19T11:47:44;41.72;;;27.15;;
46653;SDS011;38960;51.074;17.004;2023-10-19T11:50:10;37.50;;;26.67;;
46653;SDS011;38960;51.074;17.004;2023-10-19T11:52:43;38.47;;;26.60;;
46653;SDS011;38960;51.074;17.004;2023-10-19T11:55:11;39.05;;;26.20;;
46653;SDS011;38960;51.074;17.004;2023-10-19T11:57:39;38.88;;;26.15;;
46653;SDS011;38960;51.074;17.004;2023-10-19T12:00:06;38.63;;;26.60;;
46653;SDS011;38960;51.074;17.004;2023-10-19T12:02:37;40.13;;;27.70;;
46653;SDS011;38960;51.074;17.004;2023-10-19T12:05:04;40.35;;;27.73;;
46653;SDS011;38960;51.074;17.004;2023-10-19T12:07:35;41.22;;;28.85;;
46653;SDS011;38960;51.074;17.004;2023-10-19T12:10:01;38.42;;;27.80;;
46653;SDS011;38960;51.074;17.004;2023-10-19T12:12:28;36.53;;;27.35;;
46653;SDS011;38960;51.074;17.004;2023-10-19T12:14:54;39.38;;;27.40;;
46653;SDS011;38960;51.074;17.004;2023-10-19T12:17:20;44.83;;;27.75;;
46653;SDS011;38960;51.074;17.004;2023-10-19T12:19:47;40.25;;;28.83;;
46653;SDS011;38960;51.074;17.004;2023-10-19T12:22:13;42.47;;;28.38;;
46653;SDS011;38960;51.074;17.004;2023-10-19T12:24:38;38.65;;;27.42;;
46653;SDS011;38960;51.074;17.004;2023-10-19T12:27:04;39.75;;;28.08;;
46653;SDS011;38960;51.074;17.004;2023-10-19T12:29:29;40.33;;;28.83;;
46653;SDS011;38960;51.074;17.004;2023-10-19T12:31:57;39.33;;;27.33;;
46653;SDS011;38960;51.074;17.004;2023-10-19T12:34:23;42.60;;;27.13;;
46653;SDS011;38960;51.074;17.004;2023-10-19T12:36:48;40.13;;;28.30;;
46653;SDS011;38960;51.074;17.004;2023-10-19T12:39:16;41.33;;;29.35;;
46653;SDS011;38960;51.074;17.004;2023-10-19T12:42:01;42.08;;;30.13;;
46653;SDS011;38960;51.074;17.004;2023-10-19T12:44:27;40.88;;;28.67;;
46653;SDS011;38960;51.074;17.004;2023-10-19T12:46:55;42.33;;;29.02;;
46653;SDS011;38960;51.074;17.004;2023-10-19T12:49:22;39.50;;;29.08;;
46653;SDS011;38960;51.074;17.004;2023-10-19T12:51:51;43.08;;;29.80;;
46653;SDS011;38960;51.074;17.004;2023-10-19T12:54:17;44.08;;;29.15;;
46653;SDS011;38960;51.074;17.004;2023-10-19T12:56:43;42.85;;;28.45;;
46653;SDS011;38960;51.074;17.004;2023-10-19T12:59:08;42.42;;;29.33;;
46653;SDS011;38960;51.074;17.004;2023-10-19T13:01:34;49.40;;;31.15;;
46653;SDS011;38960;51.074;17.004;2023-10-19T13:04:00;44.72;;;28.88;;
46653;SDS011;38960;51.074;17.004;2023-10-19T13:06:30;43.45;;;28.98;;
46653;SDS011;38960;51.074;17.004;2023-10-19T13:08:56;42.70;;;29.58;;
46653;SDS011;38960;51.074;17.004;2023-10-19T13:11:22;42.00;;;29.88;;
46653;SDS011;38960;51.074;17.004;2023-10-19T13:13:48;47.08;;;30.75;;
46653;SDS011;38960;51.074;17.004;2023-10-19T13:16:14;48.30;;;29.85;;
46653;SDS011;38960;51.074;17.004;2023-10-19T13:18:40;42.65;;;30.77;;
46653;SDS011;38960;51.074;17.004;2023-10-19T13:21:06;47.67;;;30.33;;
46653;SDS011;38960;51.074;17.004;2023-10-19T13:23:34;45.83;;;31.63;;
46653;SDS011;38960;51.074;17.004;2023-10-19T13:26:02;46.85;;;31.60;;
46653;SDS011;38960;51.074;17.004;2023-10-19T13:28:34;45.42;;;30.60;;
46653;SDS011;38960;51.074;17.004;2023-10-19T13:31:03;52.22;;;32.22;;
46653;SDS011;38960;51.074;17.004;2023-10-19T13:33:29;51.08;;;34.38;;
46653;SDS011;38960;51.074;17.004;2023-10-19T13:35:54;42.45;;;31.75;;
46653;SDS011;38960;51.074;17.004;2023-10-19T13:38:20;45.53;;;31.45;;
46653;SDS011;38960;51.074;17.004;2023-10-19T13:40:46;46.15;;;32.28;;
46653;SDS011;38960;51.074;17.004;2023-10-19T13:43:12;43.42;;;29.67;;
46653;SDS011;38960;51.074;17.004;2023-10-19T13:45:42;44.80;;;31.30;;
46653;SDS011;38960;51.074;17.004;2023-10-19T13:48:10;44.80;;;29.65;;
46653;SDS011;38960;51.074;17.004;2023-10-19T13:50:40;40.08;;;29.38;;
46653;SDS011;38960;51.074;17.004;2023-10-19T13:53:16;39.85;;;29.33;;
46653;SDS011;38960;51.074;17.004;2023-10-19T13:55:42;46.35;;;31.30;;
46653;SDS011;38960;51.074;17.004;2023-10-19T13:58:08;41.03;;;29.65;;
46653;SDS011;38960;51.074;17.004;2023-10-19T14:00:33;43.65;;;30.10;;
46653;SDS011;38960;51.074;17.004;2023-10-19T14:02:59;47.33;;;29.85;;
46653;SDS011;38960;51.074;17.004;2023-10-19T14:05:26;45.28;;;30.67;;
46653;SDS011;38960;51.074;17.004;2023-10-19T14:07:52;44.28;;;29.80;;
46653;SDS011;38960;51.074;17.004;2023-10-19T14:10:18;42.22;;;30.40;;
46653;SDS011;38960;51.074;17.004;2023-10-19T14:12:47;43.92;;;31.13;;
46653;SDS011;38960;51.074;17.004;2023-10-19T14:15:20;42.15;;;29.00;;
46653;SDS011;38960;51.074;17.004;2023-10-19T14:20:12;40.05;;;28.20;;
46653;SDS011;38960;51.074;17.004;2023-10-19T14:22:45;38.85;;;28.42;;
46653;SDS011;38960;51.074;17.004;2023-10-19T14:25:13;48.72;;;31.73;;
46653;SDS011;38960;51.074;17.004;2023-10-19T14:27:40;42.13;;;30.10;;